Terminal Aerodrome Forecast
Issued by NWS

Home | Current Version | Previous Version | Text Only | Print | Product List | Glossary On
Versions: 1 2 3 4 5 6 7 8 9 10 11 12 13 14 15 16
000
FTUS43 KIND 261127
TAFBMG
TAF
KBMG 261127Z 2612/2712 VRB03KT 5SM BR SKC
     FM261300 18004KT P6SM FEW250
     FM270400 21006KT P6SM VCTS BKN025CB
     FM270600 20006KT P6SM BKN015
     FM270800 21005KT 4SM BR BKN015
      AMD LTD TO CLD VIS AND WIND TIL 261300=

USA.gov is the U.S. government's official web portal to all federal, state and local government web resources and services.